sensor_id;sensor_type;location;lat;lon;timestamp;pressure;altitude;pressure_sealevel;temperature;humidity
73700;BME280;62005;50.082;8.988;2024-01-11T00:00:48;101878.06;;;-4.78;86.67
73700;BME280;62005;50.082;8.988;2024-01-11T00:03:13;101876.38;;;-4.79;87.28
73700;BME280;62005;50.082;8.988;2024-01-11T00:05:39;101869.75;;;-4.86;87.19
73700;BME280;62005;50.082;8.988;2024-01-11T00:08:04;101871.59;;;-4.88;86.99
73700;BME280;62005;50.082;8.988;2024-01-11T00:10:30;101880.28;;;-4.86;86.48
73700;BME280;62005;50.082;8.988;2024-01-11T00:12:55;101884.59;;;-4.85;86.53
73700;BME280;62005;50.082;8.988;2024-01-11T00:15:21;101877.06;;;-4.91;86.51
73700;BME280;62005;50.082;8.988;2024-01-11T00:17:46;101870.44;;;-4.98;86.90
73700;BME280;62005;50.082;8.988;2024-01-11T00:20:12;101878.94;;;-4.93;86.92
73700;BME280;62005;50.082;8.988;2024-01-11T00:22:37;101871.09;;;-4.95;86.88
73700;BME280;62005;50.082;8.988;2024-01-11T00:25:03;101884.19;;;-4.93;86.36
73700;BME280;62005;50.082;8.988;2024-01-11T00:27:29;101873.66;;;-4.93;86.48
73700;BME280;62005;50.082;8.988;2024-01-11T00:29:54;101882.50;;;-4.94;86.17
73700;BME280;62005;50.082;8.988;2024-01-11T00:32:20;101887.78;;;-4.94;85.69
73700;BME280;62005;50.082;8.988;2024-01-11T00:34:47;101887.94;;;-4.97;85.60
73700;BME280;62005;50.082;8.988;2024-01-11T00:37:12;101886.25;;;-4.98;85.73
73700;BME280;62005;50.082;8.988;2024-01-11T00:39:37;101874.34;;;-5.05;85.73
73700;BME280;62005;50.082;8.988;2024-01-11T00:42:03;101896.78;;;-4.98;85.79
73700;BME280;62005;50.082;8.988;2024-01-11T00:44:29;101896.97;;;-5.01;86.03
73700;BME280;62005;50.082;8.988;2024-01-11T00:46:54;101893.56;;;-5.03;85.86
73700;BME280;62005;50.082;8.988;2024-01-11T00:49:20;101882.34;;;-5.07;85.67
73700;BME280;62005;50.082;8.988;2024-01-11T00:51:45;101877.50;;;-5.14;86.10
73700;BME280;62005;50.082;8.988;2024-01-11T00:54:11;101885.41;;;-5.14;86.86
73700;BME280;62005;50.082;8.988;2024-01-11T00:56:36;101897.31;;;-5.07;86.43
73700;BME280;62005;50.082;8.988;2024-01-11T00:59:03;101897.91;;;-5.02;86.71
73700;BME280;62005;50.082;8.988;2024-01-11T01:01:28;101879.97;;;-5.11;86.71
73700;BME280;62005;50.082;8.988;2024-01-11T01:03:53;101894.59;;;-5.06;86.82
73700;BME280;62005;50.082;8.988;2024-01-11T01:06:19;101909.56;;;-5.06;86.51
73700;BME280;62005;50.082;8.988;2024-01-11T01:08:44;101901.81;;;-5.09;85.93
73700;BME280;62005;50.082;8.988;2024-01-11T01:11:10;101892.72;;;-5.19;85.90
73700;BME280;62005;50.082;8.988;2024-01-11T01:13:35;101895.97;;;-5.14;86.26
73700;BME280;62005;50.082;8.988;2024-01-11T01:16:00;101890.69;;;-5.14;86.04
73700;BME280;62005;50.082;8.988;2024-01-11T01:18:26;101882.88;;;-5.16;86.04
73700;BME280;62005;50.082;8.988;2024-01-11T01:20:51;101890.50;;;-5.11;85.68
73700;BME280;62005;50.082;8.988;2024-01-11T01:23:17;101887.28;;;-5.16;85.86
73700;BME280;62005;50.082;8.988;2024-01-11T01:25:43;101887.09;;;-5.13;86.23
73700;BME280;62005;50.082;8.988;2024-01-11T01:28:08;101887.28;;;-5.16;86.10
73700;BME280;62005;50.082;8.988;2024-01-11T01:30:34;101887.47;;;-5.19;85.67
73700;BME280;62005;50.082;8.988;2024-01-11T01:32:59;101892.63;;;-5.18;85.39
73700;BME280;62005;50.082;8.988;2024-01-11T01:35:25;101901.22;;;-5.14;85.64
73700;BME280;62005;50.082;8.988;2024-01-11T01:37:50;101902.91;;;-5.13;86.11
73700;BME280;62005;50.082;8.988;2024-01-11T01:40:16;101901.56;;;-5.20;86.12
73700;BME280;62005;50.082;8.988;2024-01-11T01:42:45;101897.13;;;-5.20;86.37
73700;BME280;62005;50.082;8.988;2024-01-11T01:45:11;101899.09;;;-5.23;86.19
73700;BME280;62005;50.082;8.988;2024-01-11T01:47:38;101903.44;;;-5.22;86.23
73700;BME280;62005;50.082;8.988;2024-01-11T01:50:06;101891.53;;;-5.29;85.90
73700;BME280;62005;50.082;8.988;2024-01-11T01:52:32;101912.25;;;-5.23;85.42
73700;BME280;62005;50.082;8.988;2024-01-11T01:54:58;101912.44;;;-5.26;85.57
73700;BME280;62005;50.082;8.988;2024-01-11T01:57:24;101910.94;;;-5.30;85.83
73700;BME280;62005;50.082;8.988;2024-01-11T01:59:52;101908.84;;;-5.25;86.21
73700;BME280;62005;50.082;8.988;2024-01-11T02:02:19;101907.16;;;-5.26;86.32
73700;BME280;62005;50.082;8.988;2024-01-11T02:04:45;101908.22;;;-5.29;86.43
73700;BME280;62005;50.082;8.988;2024-01-11T02:07:11;101897.16;;;-5.36;85.71
73700;BME280;62005;50.082;8.988;2024-01-11T02:09:36;101911.06;;;-5.34;85.68
73700;BME280;62005;50.082;8.988;2024-01-11T02:12:02;101905.97;;;-5.37;86.67
73700;BME280;62005;50.082;8.988;2024-01-11T02:14:28;101908.59;;;-5.37;86.35
73700;BME280;62005;50.082;8.988;2024-01-11T02:16:54;101897.16;;;-5.36;86.14
73700;BME280;62005;50.082;8.988;2024-01-11T02:19:19;101909.22;;;-5.32;86.09
73700;BME280;62005;50.082;8.988;2024-01-11T02:21:46;101912.78;;;-5.32;86.40
73700;BME280;62005;50.082;8.988;2024-01-11T02:24:13;101907.69;;;-5.36;86.43
73700;BME280;62005;50.082;8.988;2024-01-11T02:27:00;101905.19;;;-5.39;86.37
73700;BME280;62005;50.082;8.988;2024-01-11T02:29:27;101902.75;;;-5.42;86.47
73700;BME280;62005;50.082;8.988;2024-01-11T02:31:52;101923.66;;;-5.39;86.65
73700;BME280;62005;50.082;8.988;2024-01-11T02:34:18;101914.13;;;-5.41;86.35
73700;BME280;62005;50.082;8.988;2024-01-11T02:36:44;101927.06;;;-5.37;86.31
73700;BME280;62005;50.082;8.988;2024-01-11T02:39:11;101911.59;;;-5.43;86.78
73700;BME280;62005;50.082;8.988;2024-01-11T02:41:37;101918.06;;;-5.32;86.38
73700;BME280;62005;50.082;8.988;2024-01-11T02:44:03;101918.06;;;-5.32;86.53
73700;BME280;62005;50.082;8.988;2024-01-11T02:46:28;101900.09;;;-5.42;86.48
73700;BME280;62005;50.082;8.988;2024-01-11T02:48:54;101916.34;;;-5.34;86.38
73700;BME280;62005;50.082;8.988;2024-01-11T02:51:19;101909.38;;;-5.35;86.77
73700;BME280;62005;50.082;8.988;2024-01-11T02:53:44;101910.75;;;-5.27;86.91
73700;BME280;62005;50.082;8.988;2024-01-11T02:56:10;101920.34;;;-5.26;87.10
73700;BME280;62005;50.082;8.988;2024-01-11T02:58:35;101917.72;;;-5.26;87.17
73700;BME280;62005;50.082;8.988;2024-01-11T03:01:01;101922.03;;;-5.25;86.85
73700;BME280;62005;50.082;8.988;2024-01-11T03:03:27;101921.28;;;-5.27;86.81
73700;BME280;62005;50.082;8.988;2024-01-11T03:05:52;101907.34;;;-5.29;86.29
73700;BME280;62005;50.082;8.988;2024-01-11T03:08:18;101904.13;;;-5.35;86.88
73700;BME280;62005;50.082;8.988;2024-01-11T03:10:43;101895.59;;;-5.40;86.62
73700;BME280;62005;50.082;8.988;2024-01-11T03:13:08;101893.56;;;-5.35;86.28
73700;BME280;62005;50.082;8.988;2024-01-11T03:15:34;101891.19;;;-5.39;86.42
73700;BME280;62005;50.082;8.988;2024-01-11T03:17:59;101876.56;;;-5.45;86.35
73700;BME280;62005;50.082;8.988;2024-01-11T03:20:25;101893.75;;;-5.38;86.31
73700;BME280;62005;50.082;8.988;2024-01-11T03:22:51;101880.16;;;-5.46;86.74
73700;BME280;62005;50.082;8.988;2024-01-11T03:25:19;101875.78;;;-5.47;86.83
73700;BME280;62005;50.082;8.988;2024-01-11T03:27:45;101895.59;;;-5.40;87.42
73700;BME280;62005;50.082;8.988;2024-01-11T03:30:11;101875.72;;;-5.45;87.06
73700;BME280;62005;50.082;8.988;2024-01-11T03:32:37;101883.38;;;-5.41;87.67
73700;BME280;62005;50.082;8.988;2024-01-11T03:35:07;101878.25;;;-5.44;86.74
73700;BME280;62005;50.082;8.988;2024-01-11T03:37:33;101871.66;;;-5.51;86.87
73700;BME280;62005;50.082;8.988;2024-01-11T03:40:00;101874.88;;;-5.46;86.62
73700;BME280;62005;50.082;8.988;2024-01-11T03:42:25;101883.69;;;-5.47;86.79
73700;BME280;62005;50.082;8.988;2024-01-11T03:44:51;101888.97;;;-5.47;87.36
73700;BME280;62005;50.082;8.988;2024-01-11T03:47:16;101885.41;;;-5.46;87.56
73700;BME280;62005;50.082;8.988;2024-01-11T03:49:41;101876.91;;;-5.51;87.66
73700;BME280;62005;50.082;8.988;2024-01-11T03:52:07;101881.66;;;-5.42;87.10
73700;BME280;62005;50.082;8.988;2024-01-11T03:54:32;101886.94;;;-5.42;87.42
73700;BME280;62005;50.082;8.988;2024-01-11T03:56:58;101876.56;;;-5.45;87.70
73700;BME280;62005;50.082;8.988;2024-01-11T03:59:23;101890.34;;;-5.40;86.91
73700;BME280;62005;50.082;8.988;2024-01-11T04:01:48;101881.66;;;-5.42;87.11
73700;BME280;62005;50.082;8.988;2024-01-11T04:04:14;101893.56;;;-5.35;87.52
73700;BME280;62005;50.082;8.988;2024-01-11T04:06:39;101891.03;;;-5.36;87.68
73700;BME280;62005;50.082;8.988;2024-01-11T04:09:04;101890.00;;;-5.34;87.40
73700;BME280;62005;50.082;8.988;2024-01-11T04:11:30;101899.72;;;-5.34;87.67
73700;BME280;62005;50.082;8.988;2024-01-11T04:13:55;101911.06;;;-5.34;87.50
73700;BME280;62005;50.082;8.988;2024-01-11T04:16:21;101896.47;;;-5.39;87.33
73700;BME280;62005;50.082;8.988;2024-01-11T04:18:47;101893.75;;;-5.38;87.22
73700;BME280;62005;50.082;8.988;2024-01-11T04:21:26;101903.06;;;-5.32;87.22
73700;BME280;62005;50.082;8.988;2024-01-11T04:23:55;101905.81;;;-5.34;87.06
73700;BME280;62005;50.082;8.988;2024-01-11T04:26:21;101919.75;;;-5.32;86.97
73700;BME280;62005;50.082;8.988;2024-01-11T04:28:47;101917.13;;;-5.32;87.02
73700;BME280;62005;50.082;8.988;2024-01-11T04:31:13;101912.97;;;-5.36;87.19
73700;BME280;62005;50.082;8.988;2024-01-11T04:33:43;101907.59;;;-5.34;87.35
73700;BME280;62005;50.082;8.988;2024-01-11T04:36:09;101909.56;;;-5.38;87.20
73700;BME280;62005;50.082;8.988;2024-01-11T04:38:34;101908.69;;;-5.38;87.34
73700;BME280;62005;50.082;8.988;2024-01-11T04:40:59;101917.28;;;-5.35;87.20
73700;BME280;62005;50.082;8.988;2024-01-11T04:43:25;101923.31;;;-5.32;87.14
73700;BME280;62005;50.082;8.988;2024-01-11T04:45:51;101922.81;;;-5.39;87.04
73700;BME280;62005;50.082;8.988;2024-01-11T04:48:17;101927.91;;;-5.36;87.17
73700;BME280;62005;50.082;8.988;2024-01-11T04:50:44;101926.19;;;-5.37;86.94
73700;BME280;62005;50.082;8.988;2024-01-11T04:53:09;101915.31;;;-5.47;87.11
73700;BME280;62005;50.082;8.988;2024-01-11T04:55:35;101924.00;;;-5.45;86.97
73700;BME280;62005;50.082;8.988;2024-01-11T04:58:00;101924.94;;;-5.46;87.04
73700;BME280;62005;50.082;8.988;2024-01-11T05:00:25;101913.63;;;-5.48;87.35
73700;BME280;62005;50.082;8.988;2024-01-11T05:02:51;101920.56;;;-5.47;87.49
73700;BME280;62005;50.082;8.988;2024-01-11T05:05:16;101922.44;;;-5.49;87.25
73700;BME280;62005;50.082;8.988;2024-01-11T05:07:42;101922.44;;;-5.49;87.56
73700;BME280;62005;50.082;8.988;2024-01-11T05:10:07;101913.78;;;-5.51;87.71
73700;BME280;62005;50.082;8.988;2024-01-11T05:12:33;101910.22;;;-5.50;87.12
73700;BME280;62005;50.082;8.988;2024-01-11T05:14:58;101919.06;;;-5.51;87.76
73700;BME280;62005;50.082;8.988;2024-01-11T05:17:25;101924.47;;;-5.54;87.08
73700;BME280;62005;50.082;8.988;2024-01-11T05:19:51;101907.50;;;-5.64;87.01
73700;BME280;62005;50.082;8.988;2024-01-11T05:22:16;101910.72;;;-5.59;87.06
73700;BME280;62005;50.082;8.988;2024-01-11T05:24:43;101926.53;;;-5.59;87.24
73700;BME280;62005;50.082;8.988;2024-01-11T05:27:08;101914.44;;;-5.63;87.28
73700;BME280;62005;50.082;8.988;2024-01-11T05:29:33;101911.91;;;-5.64;86.71
73700;BME280;62005;50.082;8.988;2024-01-11T05:31:59;101926.84;;;-5.65;86.84
73700;BME280;62005;50.082;8.988;2024-01-11T05:34:24;101923.44;;;-5.67;87.62
73700;BME280;62005;50.082;8.988;2024-01-11T05:36:50;101933.97;;;-5.67;87.62
73700;BME280;62005;50.082;8.988;2024-01-11T05:39:17;101930.25;;;-5.63;87.31
73700;BME280;62005;50.082;8.988;2024-01-11T05:41:45;101944.19;;;-5.61;87.78
73700;BME280;62005;50.082;8.988;2024-01-11T05:44:11;101940.78;;;-5.63;88.04
73700;BME280;62005;50.082;8.988;2024-01-11T05:46:36;101947.50;;;-5.57;87.59
73700;BME280;62005;50.082;8.988;2024-01-11T05:49:02;101950.44;;;-5.63;87.83
73700;BME280;62005;50.082;8.988;2024-01-11T05:51:27;101950.22;;;-5.59;87.96
73700;BME280;62005;50.082;8.988;2024-01-11T05:53:53;101970.19;;;-5.55;87.93
73700;BME280;62005;50.082;8.988;2024-01-11T05:56:18;101963.41;;;-5.59;87.88
73700;BME280;62005;50.082;8.988;2024-01-11T05:58:45;101957.28;;;-5.59;88.34
73700;BME280;62005;50.082;8.988;2024-01-11T06:01:11;101966.59;;;-5.54;87.81
73700;BME280;62005;50.082;8.988;2024-01-11T06:03:37;101970.19;;;-5.55;87.95
73700;BME280;62005;50.082;8.988;2024-01-11T06:06:04;101975.63;;;-5.58;87.70
73700;BME280;62005;50.082;8.988;2024-01-11T06:08:30;101984.47;;;-5.59;88.46
73700;BME280;62005;50.082;8.988;2024-01-11T06:10:56;101972.38;;;-5.63;88.01
73700;BME280;62005;50.082;8.988;2024-01-11T06:13:22;101991.44;;;-5.58;88.07
73700;BME280;62005;50.082;8.988;2024-01-11T06:15:47;101994.84;;;-5.56;88.32
73700;BME280;62005;50.082;8.988;2024-01-11T06:18:12;101980.28;;;-5.63;88.09
73700;BME280;62005;50.082;8.988;2024-01-11T06:20:38;101991.59;;;-5.61;88.28
73700;BME280;62005;50.082;8.988;2024-01-11T06:23:03;101998.56;;;-5.60;87.90
73700;BME280;62005;50.082;8.988;2024-01-11T06:25:29;101989.25;;;-5.67;87.42
73700;BME280;62005;50.082;8.988;2024-01-11T06:27:54;101997.03;;;-5.64;87.38
73700;BME280;62005;50.082;8.988;2024-01-11T06:30:20;102006.00;;;-5.68;87.47
73700;BME280;62005;50.082;8.988;2024-01-11T06:32:45;102008.88;;;-5.72;87.25
73700;BME280;62005;50.082;8.988;2024-01-11T06:35:11;102006.41;;;-5.75;86.92
73700;BME280;62005;50.082;8.988;2024-01-11T06:37:36;102002.75;;;-5.73;87.09
73700;BME280;62005;50.082;8.988;2024-01-11T06:40:01;102013.28;;;-5.73;87.13
73700;BME280;62005;50.082;8.988;2024-01-11T06:42:29;102016.69;;;-5.71;87.08
73700;BME280;62005;50.082;8.988;2024-01-11T06:44:54;102015.13;;;-5.75;87.11
73700;BME280;62005;50.082;8.988;2024-01-11T06:47:20;102020.56;;;-5.78;87.13
73700;BME280;62005;50.082;8.988;2024-01-11T06:49:45;102003.41;;;-5.85;87.25
73700;BME280;62005;50.082;8.988;2024-01-11T06:52:11;102017.94;;;-5.78;87.30
73700;BME280;62005;50.082;8.988;2024-01-11T06:54:36;102017.16;;;-5.80;87.11
73700;BME280;62005;50.082;8.988;2024-01-11T06:57:02;102015.47;;;-5.81;87.20
73700;BME280;62005;50.082;8.988;2024-01-11T06:59:27;102017.34;;;-5.83;87.37
73700;BME280;62005;50.082;8.988;2024-01-11T07:01:52;102020.94;;;-5.84;86.82
73700;BME280;62005;50.082;8.988;2024-01-11T07:04:18;102020.94;;;-5.84;87.11
73700;BME280;62005;50.082;8.988;2024-01-11T07:06:43;102010.56;;;-5.87;87.34
73700;BME280;62005;50.082;8.988;2024-01-11T07:09:09;102030.50;;;-5.83;87.32
73700;BME280;62005;50.082;8.988;2024-01-11T07:11:36;102033.16;;;-5.83;87.50
73700;BME280;62005;50.082;8.988;2024-01-11T07:14:01;102030.59;;;-5.84;87.01
73700;BME280;62005;50.082;8.988;2024-01-11T07:16:29;102033.31;;;-5.86;87.19
73700;BME280;62005;50.082;8.988;2024-01-11T07:18:55;102028.22;;;-5.89;87.08
73700;BME280;62005;50.082;8.988;2024-01-11T07:21:23;102039.44;;;-5.85;87.48
73700;BME280;62005;50.082;8.988;2024-01-11T07:23:58;102035.16;;;-5.88;87.66
73700;BME280;62005;50.082;8.988;2024-01-11T07:26:24;102040.25;;;-5.85;87.29
73700;BME280;62005;50.082;8.988;2024-01-11T07:28:50;102043.84;;;-5.86;87.32
73700;BME280;62005;50.082;8.988;2024-01-11T07:31:15;102045.69;;;-5.88;87.08
73700;BME280;62005;50.082;8.988;2024-01-11T07:33:41;102036.19;;;-5.90;87.68
73700;BME280;62005;50.082;8.988;2024-01-11T07:36:06;102042.16;;;-5.87;87.29
73700;BME280;62005;50.082;8.988;2024-01-11T07:38:32;102039.34;;;-5.84;87.37
73700;BME280;62005;50.082;8.988;2024-01-11T07:40:58;102038.56;;;-5.86;87.65
73700;BME280;62005;50.082;8.988;2024-01-11T07:43:23;102029.72;;;-5.85;88.11
73700;BME280;62005;50.082;8.988;2024-01-11T07:45:48;102014.09;;;-5.88;88.15
73700;BME280;62005;50.082;8.988;2024-01-11T07:48:15;102022.63;;;-5.83;88.01
73700;BME280;62005;50.082;8.988;2024-01-11T07:50:40;102022.13;;;-5.74;87.95
73700;BME280;62005;50.082;8.988;2024-01-11T07:53:06;102002.41;;;-5.82;87.62
73700;BME280;62005;50.082;8.988;2024-01-11T07:55:31;102013.44;;;-5.76;87.48
73700;BME280;62005;50.082;8.988;2024-01-11T07:57:57;102016.53;;;-5.68;87.94
73700;BME280;62005;50.082;8.988;2024-01-11T08:00:22;102013.13;;;-5.70;87.81
73700;BME280;62005;50.082;8.988;2024-01-11T08:02:49;102018.09;;;-5.64;87.76
73700;BME280;62005;50.082;8.988;2024-01-11T08:05:14;101991.44;;;-5.75;87.95
73700;BME280;62005;50.082;8.988;2024-01-11T08:07:40;102010.94;;;-5.62;88.19
73700;BME280;62005;50.082;8.988;2024-01-11T08:10:07;102024.56;;;-5.54;88.52
73700;BME280;62005;50.082;8.988;2024-01-11T08:12:34;102008.91;;;-5.57;88.22
73700;BME280;62005;50.082;8.988;2024-01-11T08:15:00;102029.34;;;-5.45;88.11
73700;BME280;62005;50.082;8.988;2024-01-11T08:17:25;102039.56;;;-5.39;88.39
73700;BME280;62005;50.082;8.988;2024-01-11T08:19:51;102023.91;;;-5.42;88.34
73700;BME280;62005;50.082;8.988;2024-01-11T08:22:19;102045.13;;;-5.27;88.46
73700;BME280;62005;50.082;8.988;2024-01-11T08:24:45;102043.09;;;-5.22;88.64
73700;BME280;62005;50.082;8.988;2024-01-11T08:27:10;102035.03;;;-5.19;88.60
73700;BME280;62005;50.082;8.988;2024-01-11T08:29:35;102035.38;;;-5.10;88.75
73700;BME280;62005;50.082;8.988;2024-01-11T08:32:01;102033.19;;;-5.02;88.81
73700;BME280;62005;50.082;8.988;2024-01-11T08:34:29;102042.56;;;-4.96;89.31
73700;BME280;62005;50.082;8.988;2024-01-11T08:36:54;102036.94;;;-4.90;88.70
73700;BME280;62005;50.082;8.988;2024-01-11T08:39:20;102035.59;;;-4.82;88.95
73700;BME280;62005;50.082;8.988;2024-01-11T08:41:47;102034.41;;;-4.76;89.16
73700;BME280;62005;50.082;8.988;2024-01-11T08:44:13;102046.84;;;-4.63;88.61
73700;BME280;62005;50.082;8.988;2024-01-11T08:46:38;102064.28;;;-4.60;89.08
73700;BME280;62005;50.082;8.988;2024-01-11T08:49:04;102043.09;;;-4.59;88.60
73700;BME280;62005;50.082;8.988;2024-01-11T08:51:30;102072.03;;;-4.42;89.06
73700;BME280;62005;50.082;8.988;2024-01-11T08:53:55;102094.25;;;-4.30;88.64
73700;BME280;62005;50.082;8.988;2024-01-11T08:56:21;102075.94;;;-4.33;88.80
73700;BME280;62005;50.082;8.988;2024-01-11T08:58:47;102085.78;;;-4.21;88.80
73700;BME280;62005;50.082;8.988;2024-01-11T09:01:16;102086.63;;;-4.05;88.45
73700;BME280;62005;50.082;8.988;2024-01-11T09:03:41;102084.41;;;-3.97;88.33
73700;BME280;62005;50.082;8.988;2024-01-11T09:06:07;102077.06;;;-3.92;88.07
73700;BME280;62005;50.082;8.988;2024-01-11T09:08:32;102078.38;;;-3.85;88.54
73700;BME280;62005;50.082;8.988;2024-01-11T09:10:59;102076.81;;;-3.73;88.29
73700;BME280;62005;50.082;8.988;2024-01-11T09:13:25;102061.84;;;-3.73;87.86
73700;BME280;62005;50.082;8.988;2024-01-11T09:15:53;102040.41;;;-3.82;87.79
73700;BME280;62005;50.082;8.988;2024-01-11T09:18:19;102061.88;;;-3.59;86.85
73700;BME280;62005;50.082;8.988;2024-01-11T09:20:45;102041.31;;;-3.54;86.45
73700;BME280;62005;50.082;8.988;2024-01-11T09:23:11;102042.81;;;-3.50;86.65
73700;BME280;62005;50.082;8.988;2024-01-11T09:25:36;102035.38;;;-3.43;86.81
73700;BME280;62005;50.082;8.988;2024-01-11T09:28:02;102052.28;;;-3.32;86.45
73700;BME280;62005;50.082;8.988;2024-01-11T09:30:28;102041.72;;;-3.32;85.92
73700;BME280;62005;50.082;8.988;2024-01-11T09:32:54;102049.84;;;-3.21;85.61
73700;BME280;62005;50.082;8.988;2024-01-11T09:35:20;102060.44;;;-3.21;85.72
73700;BME280;62005;50.082;8.988;2024-01-11T09:37:45;102040.97;;;-3.20;85.58
73700;BME280;62005;50.082;8.988;2024-01-11T09:40:12;102066.66;;;-3.08;84.53
73700;BME280;62005;50.082;8.988;2024-01-11T09:42:38;102056.25;;;-3.11;84.82
73700;BME280;62005;50.082;8.988;2024-01-11T09:45:08;102063.25;;;-2.96;85.63
73700;BME280;62005;50.082;8.988;2024-01-11T09:47:35;102056.63;;;-2.89;85.66
73700;BME280;62005;50.082;8.988;2024-01-11T09:50:02;102067.00;;;-2.86;84.77
73700;BME280;62005;50.082;8.988;2024-01-11T09:52:28;102069.66;;;-2.72;84.79
73700;BME280;62005;50.082;8.988;2024-01-11T09:54:54;102056.53;;;-2.73;85.08
73700;BME280;62005;50.082;8.988;2024-01-11T09:57:24;102072.28;;;-2.57;84.15
73700;BME280;62005;50.082;8.988;2024-01-11T09:59:54;102084.59;;;-2.56;83.96
73700;BME280;62005;50.082;8.988;2024-01-11T10:02:22;102076.34;;;-2.52;84.18
73700;BME280;62005;50.082;8.988;2024-01-11T10:04:48;102072.06;;;-2.40;82.84
73700;BME280;62005;50.082;8.988;2024-01-11T10:07:15;102067.72;;;-2.41;83.39
73700;BME280;62005;50.082;8.988;2024-01-11T10:09:44;102075.41;;;-2.24;83.38
73700;BME280;62005;50.082;8.988;2024-01-11T10:12:10;102066.69;;;-2.12;82.94
73700;BME280;62005;50.082;8.988;2024-01-11T10:14:35;102053.22;;;-2.09;82.55
73700;BME280;62005;50.082;8.988;2024-01-11T10:17:00;102034.91;;;-2.12;81.72
73700;BME280;62005;50.082;8.988;2024-01-11T10:19:26;102035.22;;;-2.04;81.85
73700;BME280;62005;50.082;8.988;2024-01-11T10:21:52;102007.44;;;-2.11;81.05
73700;BME280;62005;50.082;8.988;2024-01-11T10:24:20;102032.53;;;-1.90;80.73
73700;BME280;62005;50.082;8.988;2024-01-11T10:26:47;102020.66;;;-1.85;80.39
73700;BME280;62005;50.082;8.988;2024-01-11T10:29:12;102017.25;;;-1.87;79.55
73700;BME280;62005;50.082;8.988;2024-01-11T10:31:38;102017.72;;;-1.80;80.43
73700;BME280;62005;50.082;8.988;2024-01-11T10:34:04;102020.38;;;-1.68;79.40
73700;BME280;62005;50.082;8.988;2024-01-11T10:36:31;102028.22;;;-1.66;78.92
73700;BME280;62005;50.082;8.988;2024-01-11T10:39:00;102031.41;;;-1.61;78.87
73700;BME280;62005;50.082;8.988;2024-01-11T10:41:28;102033.22;;;-1.49;79.16
73700;BME280;62005;50.082;8.988;2024-01-11T10:43:57;102013.69;;;-1.48;79.07
73700;BME280;62005;50.082;8.988;2024-01-11T10:46:25;102004.59;;;-1.44;78.59
73700;BME280;62005;50.082;8.988;2024-01-11T10:48:55;102014.56;;;-1.35;78.78
73700;BME280;62005;50.082;8.988;2024-01-11T10:51:23;102007.13;;;-1.30;79.06
73700;BME280;62005;50.082;8.988;2024-01-11T10:53:53;102027.28;;;-1.15;78.43
73700;BME280;62005;50.082;8.988;2024-01-11T10:56:19;102027.06;;;-1.12;78.17
73700;BME280;62005;50.082;8.988;2024-01-11T10:58:45;102026.84;;;-1.09;77.53
73700;BME280;62005;50.082;8.988;2024-01-11T11:01:13;101985.50;;;-1.24;76.91
73700;BME280;62005;50.082;8.988;2024-01-11T11:03:39;102000.13;;;-1.06;77.62
73700;BME280;62005;50.082;8.988;2024-01-11T11:06:06;102002.72;;;-0.93;78.07
73700;BME280;62005;50.082;8.988;2024-01-11T11:08:33;101998.59;;;-0.85;77.51
73700;BME280;62005;50.082;8.988;2024-01-11T11:11:03;102012.38;;;-0.80;76.07
73700;BME280;62005;50.082;8.988;2024-01-11T11:13:31;102020.84;;;-0.75;76.80
73700;BME280;62005;50.082;8.988;2024-01-11T11:15:57;102010.25;;;-0.75;76.01
73700;BME280;62005;50.082;8.988;2024-01-11T11:18:23;102006.91;;;-0.66;76.52
73700;BME280;62005;50.082;8.988;2024-01-11T11:20:49;102020.41;;;-0.69;75.38
73700;BME280;62005;50.082;8.988;2024-01-11T11:23:17;101991.88;;;-0.78;75.82
73700;BME280;62005;50.082;8.988;2024-01-11T11:25:45;102000.66;;;-0.65;74.47
73700;BME280;62005;50.082;8.988;2024-01-11T11:28:13;102009.41;;;-0.52;75.83
73700;BME280;62005;50.082;8.988;2024-01-11T11:30:44;101996.78;;;-0.48;75.89
73700;BME280;62005;50.082;8.988;2024-01-11T11:33:26;101997.88;;;-0.40;74.89
73700;BME280;62005;50.082;8.988;2024-01-11T11:35:53;101997.69;;;-0.37;74.96
73700;BME280;62005;50.082;8.988;2024-01-11T11:38:23;101986.53;;;-0.42;75.04
73700;BME280;62005;50.082;8.988;2024-01-11T11:40:51;101998.38;;;-0.35;74.44
73700;BME280;62005;50.082;8.988;2024-01-11T11:43:18;101973.97;;;-0.40;74.61
73700;BME280;62005;50.082;8.988;2024-01-11T11:45:45;101996.03;;;-0.27;75.25
73700;BME280;62005;50.082;8.988;2024-01-11T11:51:08;101991.94;;;-0.20;74.76
73700;BME280;62005;50.082;8.988;2024-01-11T11:53:35;101998.97;;;-0.19;73.99
73700;BME280;62005;50.082;8.988;2024-01-11T11:56:01;101969.47;;;-0.27;73.10
73700;BME280;62005;50.082;8.988;2024-01-11T11:58:28;101977.25;;;-0.13;74.17
73700;BME280;62005;50.082;8.988;2024-01-11T12:00:55;101972.44;;;-0.08;75.14
73700;BME280;62005;50.082;8.988;2024-01-11T12:03:25;101964.00;;;-0.02;74.57
73700;BME280;62005;50.082;8.988;2024-01-11T12:05:54;101970.53;;;0.06;75.25
73700;BME280;62005;50.082;8.988;2024-01-11T12:08:21;101963.31;;;0.08;75.38
73700;BME280;62005;50.082;8.988;2024-01-11T12:10:46;101964.53;;;0.15;74.74
73700;BME280;62005;50.082;8.988;2024-01-11T12:13:12;101965.38;;;0.15;74.81
73700;BME280;62005;50.082;8.988;2024-01-11T12:15:38;101958.00;;;0.19;75.43
73700;BME280;62005;50.082;8.988;2024-01-11T12:18:04;101966.97;;;0.29;74.99
73700;BME280;62005;50.082;8.988;2024-01-11T12:20:29;101960.47;;;0.33;74.63
73700;BME280;62005;50.082;8.988;2024-01-11T12:22:55;101960.34;;;0.34;74.51
73700;BME280;62005;50.082;8.988;2024-01-11T12:25:21;101965.31;;;0.39;74.58
73700;BME280;62005;50.082;8.988;2024-01-11T12:27:47;101953.72;;;0.40;74.20
73700;BME280;62005;50.082;8.988;2024-01-11T12:30:12;101939.44;;;0.41;74.74
73700;BME280;62005;50.082;8.988;2024-01-11T12:32:42;101939.69;;;0.38;74.13
73700;BME280;62005;50.082;8.988;2024-01-11T12:35:08;101954.47;;;0.53;74.84
73700;BME280;62005;50.082;8.988;2024-01-11T12:37:34;101940.19;;;0.54;74.41
73700;BME280;62005;50.082;8.988;2024-01-11T12:39:59;101938.50;;;0.53;73.77
73700;BME280;62005;50.082;8.988;2024-01-11T12:42:29;101936.53;;;0.55;73.91
73700;BME280;62005;50.082;8.988;2024-01-11T12:44:55;101946.47;;;0.64;74.02
73700;BME280;62005;50.082;8.988;2024-01-11T12:47:20;101946.34;;;0.65;73.72